Terminal Aerodrome Forecast
Issued by NWS

Home | Current Version | Previous Version | Text Only | Print | Product List | Glossary On
Versions: 1 2 3 4 5 6 7 8 9 10 11 12 13 14 15 16 17 18 19 20 21 22 23 24 25 26 27 28 29 30 31 32 33 34 35 36 37 38 39 40 41 42 43 44 45 46
000
FTPA31 PHFO 260300 AAA
TAFLNY
TAF AMD
PHNY 260319Z 2603/2624 04021G28KT P6SM FEW015 SCT035
      TEMPO 2603/2605 BKN005
     FM260800 05016G24KT P6SM FEW015 SCT035
     FM261900 05020G28KT P6SM FEW025 SCT035
      AMD NOT SKED=

USA.gov is the U.S. government's official web portal to all federal, state and local government web resources and services.